createdAt,value
2018-02-03T00:00:51.714Z,18.93
2018-02-03T00:03:21.329Z,21.60
2018-02-03T00:05:50.897Z,18.17
2018-02-03T00:08:20.567Z,20.20
2018-02-03T00:10:49.926Z,21.67
2018-02-03T00:13:19.453Z,19.77
2018-02-03T00:15:49.084Z,24.33
2018-02-03T00:18:18.622Z,28.97
2018-02-03T00:20:47.117Z,16.37
2018-02-03T00:23:15.604Z,23.43
2018-02-03T00:25:44.060Z,17.20
2018-02-03T00:28:12.862Z,21.73
2018-02-03T00:30:41.881Z,16.20
2018-02-03T00:33:10.324Z,25.93
2018-02-03T00:35:38.909Z,22.40
2018-02-03T00:38:07.357Z,20.70
2018-02-03T00:40:36.384Z,22.30
2018-02-03T00:43:04.849Z,21.60
2018-02-03T00:45:33.289Z,20.73
2018-02-03T00:48:02.398Z,26.83
2018-02-03T00:50:31.557Z,17.67
2018-02-03T00:53:00.221Z,27.60
2018-02-03T00:55:29.882Z,23.10
2018-02-03T00:57:59.132Z,22.00
2018-02-03T01:00:28.601Z,27.27
2018-02-03T01:02:57.756Z,26.97
2018-02-03T01:05:26.544Z,23.50
2018-02-03T01:07:55.246Z,22.20
2018-02-03T01:10:24.472Z,25.07
2018-02-03T01:12:54.812Z,21.83
2018-02-03T01:15:24.101Z,23.43
2018-02-03T01:17:53.268Z,28.37
2018-02-03T01:20:22.687Z,27.87
2018-02-03T01:22:52.518Z,26.67
2018-02-03T01:25:22.629Z,32.23
2018-02-03T01:27:51.762Z,29.77
2018-02-03T01:30:20.229Z,26.23
2018-02-03T01:32:48.959Z,29.53
2018-02-03T01:35:18.089Z,33.70
2018-02-03T01:37:47.872Z,28.87
2018-02-03T01:40:17.331Z,28.73
2018-02-03T01:42:45.810Z,27.00
2018-02-03T01:45:14.251Z,28.40
2018-02-03T01:47:53.952Z,36.63
2018-02-03T01:50:22.393Z,33.93
2018-02-03T01:52:51.233Z,35.50
2018-02-03T01:55:19.697Z,33.30
2018-02-03T01:57:48.182Z,33.30
2018-02-03T02:00:16.663Z,37.77
2018-02-03T02:02:45.431Z,30.97
2018-02-03T02:05:13.909Z,34.03
2018-02-03T02:07:42.389Z,35.83
2018-02-03T02:10:11.506Z,28.57
2018-02-03T02:12:39.979Z,29.67
2018-02-03T02:15:08.460Z,33.53
2018-02-03T02:17:36.953Z,29.10
2018-02-03T02:20:05.416Z,35.60
2018-02-03T02:22:33.908Z,36.80
2018-02-03T02:25:02.354Z,36.33
2018-02-03T02:27:31.282Z,34.67
2018-02-03T02:30:00.696Z,32.13
2018-02-03T02:32:29.918Z,35.93
2018-02-03T02:34:58.355Z,40.63
2018-02-03T02:37:26.802Z,37.30
2018-02-03T02:39:55.664Z,38.17
2018-02-03T02:42:24.105Z,33.10
2018-02-03T02:44:52.546Z,35.63
2018-02-03T02:47:21.071Z,38.90
2018-02-03T02:49:49.566Z,43.43
2018-02-03T02:52:18.011Z,37.87
2018-02-03T02:54:46.511Z,36.73
2018-02-03T02:57:14.943Z,34.90
2018-02-03T02:59:44.095Z,39.60
2018-02-03T03:02:12.525Z,36.40
2018-02-03T03:04:41.067Z,31.03
2018-02-03T03:07:09.503Z,30.87
2018-02-03T03:09:38.415Z,33.70
2018-02-03T03:12:06.899Z,31.67
2018-02-03T03:14:35.328Z,33.90
2018-02-03T03:17:03.764Z,29.90
2018-02-03T03:19:32.197Z,35.43
2018-02-03T03:22:00.728Z,34.37
2018-02-03T03:24:29.155Z,34.90
2018-02-03T03:26:57.594Z,36.27
2018-02-03T03:29:26.195Z,31.40
2018-02-03T03:31:54.626Z,33.50
2018-02-03T03:34:23.073Z,34.27
2018-02-03T03:36:51.516Z,34.90
2018-02-03T03:39:19.980Z,34.80
2018-02-03T03:41:48.411Z,31.80
2018-02-03T03:44:16.850Z,29.90
2018-02-03T03:46:45.296Z,36.77
2018-02-03T03:49:14.116Z,35.30
2018-02-03T03:51:42.623Z,30.30
2018-02-03T03:54:11.067Z,36.90
2018-02-03T03:56:39.516Z,30.93
2018-02-03T03:59:08.060Z,33.20
2018-02-03T04:01:36.496Z,34.03
2018-02-03T04:04:05.428Z,30.33
2018-02-03T04:06:33.868Z,33.80
2018-02-03T04:09:02.748Z,33.40
2018-02-03T04:11:31.959Z,29.00
2018-02-03T04:14:00.817Z,32.40
2018-02-03T04:16:29.295Z,31.93
2018-02-03T04:18:57.725Z,27.63
2018-02-03T04:21:26.221Z,34.90
2018-02-03T04:23:54.704Z,30.70
2018-02-03T04:26:23.163Z,30.80
2018-02-03T04:28:51.991Z,30.33
2018-02-03T04:31:20.440Z,34.53
2018-02-03T04:33:48.876Z,31.93
2018-02-03T04:36:17.310Z,28.83
2018-02-03T04:38:45.746Z,18.57
2018-02-03T04:41:14.174Z,16.10
2018-02-03T04:43:42.607Z,14.73
2018-02-03T04:46:11.047Z,19.00
2018-02-03T04:48:39.520Z,15.50
2018-02-03T04:51:07.964Z,15.90
2018-02-03T04:53:36.383Z,17.97
2018-02-03T04:56:04.820Z,14.90
2018-02-03T04:58:33.645Z,18.70
2018-02-03T05:01:02.076Z,17.37
2018-02-03T05:03:30.504Z,15.27
2018-02-03T05:05:58.952Z,16.87
2018-02-03T05:08:27.871Z,16.93
2018-02-03T05:10:56.319Z,15.17
2018-02-03T05:13:25.151Z,21.93
2018-02-03T05:15:53.581Z,16.80
2018-02-03T05:18:22.102Z,18.00
2018-02-03T05:20:50.543Z,17.03
2018-02-03T05:23:18.988Z,21.30
2018-02-03T05:25:47.436Z,17.83
2018-02-03T05:28:15.896Z,23.07
2018-02-03T05:30:44.747Z,21.77
2018-02-03T05:33:13.175Z,20.53
2018-02-03T05:35:42.099Z,18.87
2018-02-03T05:38:10.563Z,19.00
2018-02-03T05:40:38.976Z,22.03
2018-02-03T05:43:07.407Z,23.10
2018-02-03T05:45:36.219Z,23.00
2018-02-03T05:48:04.709Z,20.83
2018-02-03T05:50:33.131Z,24.93
2018-02-03T05:53:01.580Z,24.57
2018-02-03T05:55:30.007Z,25.83
2018-02-03T05:57:59.002Z,23.47
2018-02-03T06:00:27.831Z,25.73
2018-02-03T06:02:56.264Z,24.33
2018-02-03T06:05:24.704Z,24.17
2018-02-03T06:07:53.179Z,21.97
2018-02-03T06:10:21.635Z,25.80
2018-02-03T06:12:50.069Z,22.93
2018-02-03T06:15:18.509Z,20.20
2018-02-03T06:17:46.984Z,23.30
2018-02-03T06:20:15.415Z,25.00
2018-02-03T06:22:43.959Z,20.23
2018-02-03T06:25:12.430Z,19.00
2018-02-03T06:27:40.937Z,20.53
2018-02-03T06:30:09.372Z,17.43
2018-02-03T06:32:37.831Z,16.83
2018-02-03T06:35:06.376Z,15.43
2018-02-03T06:37:34.836Z,17.37
2018-02-03T06:40:03.322Z,13.23
2018-02-03T06:42:31.743Z,12.67
2018-02-03T06:45:00.201Z,13.47
2018-02-03T06:47:28.721Z,12.97
2018-02-03T06:49:57.652Z,15.53
2018-02-03T06:52:26.139Z,15.17
2018-02-03T06:54:54.624Z,15.43
2018-02-03T06:57:23.096Z,21.00
2018-02-03T06:59:51.594Z,19.10
2018-02-03T07:02:20.035Z,19.70
2018-02-03T07:04:48.860Z,24.20
2018-02-03T07:07:17.323Z,17.77
2018-02-03T07:09:45.767Z,21.70
2018-02-03T07:12:15.388Z,20.70
2018-02-03T07:14:44.223Z,24.20
2018-02-03T07:17:12.643Z,21.03
2018-02-03T07:19:41.092Z,20.90
2018-02-03T07:22:09.520Z,21.93
2018-02-03T07:24:38.339Z,21.13
2018-02-03T07:27:06.828Z,22.23
2018-02-03T07:29:35.264Z,21.90
2018-02-03T07:32:04.099Z,21.20
2018-02-03T07:34:32.516Z,20.07
2018-02-03T07:37:00.956Z,16.50
2018-02-03T07:39:29.553Z,21.60
2018-02-03T07:41:57.984Z,17.90
2018-02-03T07:44:26.808Z,15.90
2018-02-03T07:46:55.281Z,13.37
2018-02-03T07:49:23.721Z,15.17
2018-02-03T07:51:52.553Z,18.80
2018-02-03T07:54:20.987Z,14.80
2018-02-03T07:56:49.528Z,16.87
2018-02-03T07:59:18.104Z,16.10
2018-02-03T08:01:46.540Z,17.70
2018-02-03T08:04:15.480Z,21.20
2018-02-03T08:06:44.768Z,16.00
2018-02-03T08:09:13.199Z,13.17
2018-02-03T08:11:41.629Z,16.60
2018-02-03T08:14:10.137Z,15.00
2018-02-03T08:16:38.692Z,17.83
2018-02-03T08:19:07.188Z,14.33
2018-02-03T08:21:35.657Z,11.77
2018-02-03T08:24:04.094Z,12.20
2018-02-03T08:26:32.520Z,11.60
2018-02-03T08:29:00.991Z,8.37
2018-02-03T08:31:29.411Z,7.33
2018-02-03T08:33:57.856Z,14.00
2018-02-03T08:36:26.326Z,8.23
2018-02-03T08:38:54.743Z,9.10
2018-02-03T08:41:23.120Z,9.30
2018-02-03T08:43:51.466Z,6.70
2018-02-03T08:46:20.203Z,6.77
2018-02-03T08:48:48.536Z,8.90
2018-02-03T08:51:16.922Z,7.43
2018-02-03T08:53:45.382Z,6.90
2018-02-03T08:56:14.115Z,6.20
2018-02-03T08:58:42.460Z,6.27
2018-02-03T09:01:10.878Z,5.87
2018-02-03T09:03:39.255Z,6.10
2018-02-03T09:06:07.623Z,5.30
2018-02-03T09:08:35.981Z,5.20
2018-02-03T09:11:04.352Z,6.30
2018-02-03T09:13:32.688Z,6.00
2018-02-03T09:16:01.040Z,5.93
2018-02-03T09:18:29.421Z,5.33
2018-02-03T09:20:57.800Z,6.07
2018-02-03T09:23:26.137Z,5.27
2018-02-03T09:25:54.559Z,4.53
2018-02-03T09:28:23.019Z,5.30
2018-02-03T09:30:51.430Z,4.93
2018-02-03T09:33:19.811Z,5.77
2018-02-03T09:35:48.211Z,5.20
2018-02-03T09:38:16.655Z,4.40
2018-02-03T09:40:44.992Z,4.93
2018-02-03T09:43:13.800Z,4.90
2018-02-03T09:45:42.146Z,5.23
2018-02-03T09:48:10.892Z,5.23
2018-02-03T09:50:39.246Z,6.47
2018-02-03T09:53:07.628Z,6.27
2018-02-03T09:55:36.884Z,7.23
2018-02-03T09:58:05.327Z,8.23
2018-02-03T10:00:33.751Z,6.07
2018-02-03T10:03:02.500Z,7.30
2018-02-03T10:05:30.878Z,7.10
2018-02-03T10:07:59.251Z,6.73
2018-02-03T10:10:27.595Z,5.97
2018-02-03T10:12:55.940Z,6.43
2018-02-03T10:15:24.282Z,5.73
2018-02-03T10:17:52.667Z,7.33
2018-02-03T10:20:21.096Z,7.50
2018-02-03T10:22:49.933Z,7.13
2018-02-03T10:25:18.312Z,7.43
2018-02-03T10:27:46.658Z,7.00
2018-02-03T10:30:15.064Z,9.30
2018-02-03T10:32:43.452Z,7.77
2018-02-03T10:35:11.807Z,8.70
2018-02-03T10:37:40.202Z,8.17
2018-02-03T10:40:08.658Z,7.60
2018-02-03T10:42:37.003Z,8.17
2018-02-03T10:45:05.360Z,8.30
2018-02-03T10:47:33.713Z,9.43
2018-02-03T10:50:02.080Z,9.17
2018-02-03T10:52:30.450Z,9.17
2018-02-03T10:54:58.792Z,9.03
2018-02-03T10:57:27.125Z,8.90
2018-02-03T10:59:55.468Z,8.70
2018-02-03T11:02:24.305Z,9.57
2018-02-03T11:04:52.672Z,9.50
2018-02-03T11:07:21.064Z,9.40
2018-02-03T11:09:49.491Z,10.30
2018-02-03T11:12:18.339Z,9.40
2018-02-03T11:14:46.760Z,10.63
2018-02-03T11:17:15.603Z,10.63
2018-02-03T11:19:43.990Z,11.10
2018-02-03T11:22:12.558Z,10.90
2018-02-03T11:24:41.050Z,10.13
2018-02-03T11:27:09.401Z,9.80
2018-02-03T11:29:37.753Z,13.60
2018-02-03T11:32:06.583Z,9.47
2018-02-03T11:34:34.929Z,8.90
2018-02-03T11:37:03.286Z,10.53
2018-02-03T11:39:31.650Z,10.30
2018-02-03T11:42:00.103Z,12.17
2018-02-03T11:44:28.449Z,15.50
2018-02-03T11:46:56.892Z,12.60
2018-02-03T11:49:25.228Z,12.53
2018-02-03T11:51:53.644Z,11.80
2018-02-03T11:54:22.020Z,16.67
2018-02-03T11:56:50.392Z,17.43
2018-02-03T11:59:18.755Z,11.13
2018-02-03T12:01:47.141Z,10.13
2018-02-03T12:04:15.494Z,7.47
2018-02-03T12:06:43.841Z,9.63
2018-02-03T12:09:12.215Z,8.20
2018-02-03T12:11:41.107Z,9.00
2018-02-03T12:14:09.956Z,12.80
2018-02-03T12:16:38.848Z,11.97
2018-02-03T12:19:07.225Z,19.27
2018-02-03T12:21:35.612Z,13.13
2018-02-03T12:24:03.959Z,17.17
2018-02-03T12:26:32.340Z,19.23
2018-02-03T12:29:02.675Z,13.73
2018-02-03T12:31:31.048Z,17.70
2018-02-03T12:33:59.396Z,13.10
2018-02-03T12:36:27.798Z,9.53
2018-02-03T12:38:56.187Z,9.37
2018-02-03T12:41:24.520Z,8.90
2018-02-03T12:43:54.304Z,13.83
2018-02-03T12:46:22.642Z,8.13
2018-02-03T12:48:50.987Z,9.17
2018-02-03T12:51:19.829Z,9.73
2018-02-03T12:53:48.179Z,9.43
2018-02-03T12:56:16.574Z,8.63
2018-02-03T12:58:44.964Z,9.80
2018-02-03T13:01:13.388Z,8.57
2018-02-03T13:03:42.144Z,17.60
2018-02-03T13:06:10.520Z,10.70
2018-02-03T13:08:38.911Z,9.23
2018-02-03T13:11:08.272Z,9.30
2018-02-03T13:13:36.634Z,8.80
2018-02-03T13:16:05.359Z,8.33
2018-02-03T13:18:34.522Z,8.90
2018-02-03T13:21:02.867Z,6.80
2018-02-03T13:23:31.207Z,8.57
2018-02-03T13:25:59.828Z,8.23
2018-02-03T13:28:28.279Z,8.17
2018-02-03T13:30:56.666Z,8.13
2018-02-03T13:33:25.058Z,7.53
2018-02-03T13:35:53.518Z,8.70
2018-02-03T13:38:21.871Z,7.83
2018-02-03T13:40:50.275Z,8.10
2018-02-03T13:43:18.628Z,7.57
2018-02-03T13:45:47.724Z,7.50
2018-02-03T13:48:16.135Z,8.57
2018-02-03T13:50:44.484Z,7.50
2018-02-03T13:53:12.884Z,6.20
2018-02-03T13:55:41.244Z,6.60
2018-02-03T13:58:09.587Z,7.33
2018-02-03T14:00:38.404Z,6.63
2018-02-03T14:03:06.803Z,7.03
2018-02-03T14:05:35.207Z,7.20
2018-02-03T14:08:03.568Z,7.87
2018-02-03T14:10:31.950Z,7.80
2018-02-03T14:13:00.320Z,8.80
2018-02-03T14:15:28.642Z,7.40
2018-02-03T14:17:57.386Z,9.00
2018-02-03T14:20:25.768Z,8.20
2018-02-03T14:22:54.145Z,7.80
2018-02-03T14:25:22.497Z,7.40
2018-02-03T14:27:50.832Z,6.83
2018-02-03T14:30:19.368Z,6.77
2018-02-03T14:32:47.776Z,6.70
2018-02-03T14:35:16.148Z,7.13
2018-02-03T14:37:44.501Z,10.10
2018-02-03T14:40:12.934Z,7.53
2018-02-03T14:42:41.700Z,7.60
2018-02-03T14:45:10.172Z,7.63
2018-02-03T14:47:38.614Z,7.70
2018-02-03T14:50:06.956Z,8.33
2018-02-03T14:52:35.295Z,8.20
2018-02-03T14:55:03.653Z,7.40
2018-02-03T14:57:32.065Z,8.80
2018-02-03T15:00:00.442Z,8.97
2018-02-03T15:02:28.804Z,9.50
2018-02-03T15:04:57.131Z,8.87
2018-02-03T15:07:25.504Z,8.73
2018-02-03T15:09:53.844Z,8.43
2018-02-03T15:12:22.289Z,9.20
2018-02-03T15:14:51.051Z,8.07
2018-02-03T15:17:19.393Z,8.60
2018-02-03T15:19:47.774Z,9.03
2018-02-03T15:22:16.111Z,9.40
2018-02-03T15:24:44.850Z,11.67
2018-02-03T15:27:13.207Z,9.20
2018-02-03T15:29:41.549Z,7.80
2018-02-03T15:32:10.428Z,14.33
2018-02-03T15:34:38.775Z,8.37
2018-02-03T15:37:07.111Z,7.40
2018-02-03T15:39:35.533Z,8.60
2018-02-03T15:42:03.919Z,7.80
2018-02-03T15:44:32.388Z,5.63
2018-02-03T15:47:00.748Z,8.23
2018-02-03T15:49:29.100Z,6.97
2018-02-03T15:51:57.936Z,6.33
2018-02-03T15:54:26.284Z,5.83
2018-02-03T15:56:55.135Z,8.50
2018-02-03T15:59:23.494Z,7.33
2018-02-03T16:01:51.840Z,10.30
2018-02-03T16:04:20.188Z,8.70
2018-02-03T16:06:48.932Z,9.50
2018-02-03T16:09:17.296Z,11.60
2018-02-03T16:11:45.646Z,14.13
2018-02-03T16:14:14.062Z,10.83
2018-02-03T16:16:42.414Z,11.00
2018-02-03T16:19:10.815Z,11.57
2018-02-03T16:21:39.175Z,9.87
2018-02-03T16:24:07.515Z,11.50
2018-02-03T16:26:36.251Z,9.13
2018-02-03T16:29:04.596Z,8.10
2018-02-03T16:31:33.464Z,12.67
2018-02-03T16:34:02.220Z,8.83
2018-02-03T16:36:30.595Z,8.60
2018-02-03T16:38:58.939Z,8.13
2018-02-03T16:41:27.292Z,10.40
2018-02-03T16:43:55.632Z,8.53
2018-02-03T16:46:24.265Z,12.70
2018-02-03T16:48:53.189Z,8.70
2018-02-03T16:51:21.572Z,9.20
2018-02-03T16:53:49.991Z,8.80
2018-02-03T16:56:24.996Z,12.00
2018-02-03T16:58:53.481Z,9.63
2018-02-03T17:01:21.855Z,9.83
2018-02-03T17:03:50.384Z,9.67
2018-02-03T17:06:19.229Z,8.60
2018-02-03T17:08:47.784Z,8.67
2018-02-03T17:11:16.131Z,8.67
2018-02-03T17:13:44.551Z,11.50
2018-02-03T17:16:12.896Z,11.50
2018-02-03T17:18:41.673Z,11.80
2018-02-03T17:21:10.016Z,12.40
2018-02-03T17:23:38.380Z,13.23
2018-02-03T17:26:06.732Z,13.70
2018-02-03T17:28:35.157Z,16.73
2018-02-03T17:31:03.508Z,17.67
2018-02-03T17:33:31.880Z,14.00
2018-02-03T17:36:00.224Z,16.10
2018-02-03T17:38:34.202Z,15.77
2018-02-03T17:41:02.655Z,15.90
2018-02-03T17:43:31.149Z,14.83
2018-02-03T17:46:05.071Z,11.43
2018-02-03T17:48:33.412Z,10.60
2018-02-03T17:51:01.768Z,11.63
2018-02-03T17:53:30.507Z,13.60
2018-02-03T17:56:04.294Z,14.33
2018-02-03T17:58:32.696Z,13.40
2018-02-03T18:01:01.041Z,10.40
2018-02-03T18:03:29.418Z,13.03
2018-02-03T18:05:57.832Z,9.13
2018-02-03T18:08:26.197Z,9.53
2018-02-03T18:10:54.584Z,8.00
2018-02-03T18:13:22.936Z,9.40
2018-02-03T18:15:51.293Z,8.37
2018-02-03T18:18:20.243Z,9.33
2018-02-03T18:20:48.622Z,8.17
2018-02-03T18:23:16.959Z,15.03
2018-02-03T18:25:45.300Z,8.70
2018-02-03T18:28:13.666Z,8.47
2018-02-03T18:30:42.015Z,8.27
2018-02-03T18:33:10.375Z,7.67
2018-02-03T18:35:38.783Z,8.80
2018-02-03T18:38:07.144Z,7.50
2018-02-03T18:40:35.563Z,8.33
2018-02-03T18:43:04.343Z,7.83
2018-02-03T18:45:44.361Z,7.90
2018-02-03T18:48:12.859Z,6.03
2018-02-03T18:50:41.245Z,10.57
2018-02-03T18:53:09.603Z,6.50
2018-02-03T18:55:37.963Z,7.37
2018-02-03T18:58:06.376Z,6.83
2018-02-03T19:00:34.724Z,6.80
2018-02-03T19:03:03.081Z,6.87
2018-02-03T19:05:31.936Z,12.20
2018-02-03T19:08:00.299Z,7.57
2018-02-03T19:10:28.867Z,7.33
2018-02-03T19:12:57.269Z,6.00
2018-02-03T19:15:25.609Z,5.97
2018-02-03T19:17:54.032Z,6.53
2018-02-03T19:20:22.377Z,8.20
2018-02-03T19:22:50.747Z,8.50
2018-02-03T19:25:19.090Z,7.17
2018-02-03T19:27:47.473Z,10.80
2018-02-03T19:30:15.876Z,7.83
2018-02-03T19:32:44.804Z,8.80
2018-02-03T19:35:13.173Z,8.27
2018-02-03T19:37:41.519Z,9.80
2018-02-03T19:40:09.866Z,9.10
2018-02-03T19:42:38.626Z,9.53
2018-02-03T19:45:06.975Z,8.87
2018-02-03T19:47:35.392Z,9.57
2018-02-03T19:50:03.734Z,8.77
2018-02-03T19:52:32.093Z,8.40
2018-02-03T19:55:00.851Z,9.47
2018-02-03T19:57:29.227Z,8.47
2018-02-03T19:59:57.600Z,32.03
2018-02-03T20:02:25.949Z,8.33
2018-02-03T20:04:54.292Z,7.60
2018-02-03T20:07:23.144Z,7.67
2018-02-03T20:09:51.498Z,6.90
2018-02-03T20:12:19.864Z,8.23
2018-02-03T20:14:48.239Z,7.83
2018-02-03T20:17:16.660Z,8.80
2018-02-03T20:19:45.040Z,8.30
2018-02-03T20:22:13.395Z,14.30
2018-02-03T20:24:41.808Z,10.33
2018-02-03T20:27:10.160Z,8.83
2018-02-03T20:29:38.515Z,8.50
2018-02-03T20:32:06.884Z,6.67
2018-02-03T20:34:35.231Z,6.77
2018-02-03T20:37:03.709Z,6.87
2018-02-03T20:39:32.108Z,6.50
2018-02-03T20:42:00.956Z,7.10
2018-02-03T20:44:29.336Z,6.47
2018-02-03T20:46:57.703Z,7.73
2018-02-03T20:49:26.072Z,7.10
2018-02-03T20:51:54.415Z,6.07
2018-02-03T20:54:23.255Z,7.23
2018-02-03T20:56:51.635Z,7.50
2018-02-03T20:59:19.979Z,7.50
2018-02-03T21:01:48.745Z,8.23
2018-02-03T21:04:17.480Z,7.63
2018-02-03T21:06:45.837Z,6.27
2018-02-03T21:09:14.251Z,7.77
2018-02-03T21:11:42.658Z,7.60
2018-02-03T21:14:10.981Z,7.23
2018-02-03T21:16:39.388Z,7.20
2018-02-03T21:19:07.760Z,7.20
2018-02-03T21:21:36.221Z,8.33
2018-02-03T21:24:04.615Z,7.47
2018-02-03T21:26:32.974Z,7.80
2018-02-03T21:29:01.375Z,7.20
2018-02-03T21:31:29.735Z,6.27
2018-02-03T21:33:58.175Z,7.47
2018-02-03T21:36:26.513Z,6.50
2018-02-03T21:38:54.884Z,6.60
2018-02-03T21:41:23.232Z,6.50
2018-02-03T21:43:51.976Z,7.03
2018-02-03T21:46:20.323Z,7.37
2018-02-03T21:48:48.701Z,6.60
2018-02-03T21:51:17.073Z,6.03
2018-02-03T21:53:45.477Z,6.30
2018-02-03T21:56:13.820Z,5.77
2018-02-03T21:58:42.239Z,6.10
2018-02-03T22:01:10.711Z,6.00
2018-02-03T22:03:39.098Z,5.43
2018-02-03T22:06:07.468Z,11.00
2018-02-03T22:08:35.825Z,5.43
2018-02-03T22:11:04.178Z,6.30
2018-02-03T22:13:32.661Z,6.67
2018-02-03T22:16:01.497Z,6.97
2018-02-03T22:18:29.867Z,8.17
2018-02-03T22:20:58.212Z,8.40
2018-02-03T22:23:26.971Z,6.53
2018-02-03T22:25:55.327Z,6.93
2018-02-03T22:28:23.706Z,7.03
2018-02-03T22:30:52.056Z,7.00
2018-02-03T22:33:20.495Z,7.50
2018-02-03T22:35:48.965Z,7.50
2018-02-03T22:38:17.315Z,6.90
2018-02-03T22:40:45.708Z,7.50
2018-02-03T22:43:14.182Z,5.73
2018-02-03T22:45:42.528Z,5.30
2018-02-03T22:48:11.040Z,5.70
2018-02-03T22:50:39.384Z,5.80
2018-02-03T22:53:07.748Z,4.83
2018-02-03T22:55:36.499Z,5.87
2018-02-03T22:58:04.852Z,5.87
2018-02-03T23:00:35.706Z,8.23
2018-02-03T23:03:01.728Z,5.83
2018-02-03T23:05:30.086Z,6.30
2018-02-03T23:07:58.455Z,6.40
2018-02-03T23:10:26.806Z,6.50
2018-02-03T23:12:55.585Z,6.97
2018-02-03T23:15:23.925Z,6.53
2018-02-03T23:17:52.318Z,7.03
2018-02-03T23:20:20.671Z,6.50
2018-02-03T23:22:49.029Z,8.33
2018-02-03T23:25:17.457Z,5.80
2018-02-03T23:27:45.828Z,7.53
2018-02-03T23:30:14.185Z,7.13
2018-02-03T23:32:42.576Z,7.40
2018-02-03T23:35:10.960Z,6.80
2018-02-03T23:37:39.852Z,7.00
2018-02-03T23:40:08.228Z,8.13
2018-02-03T23:42:36.576Z,5.90
2018-02-03T23:45:04.955Z,6.97
2018-02-03T23:47:33.361Z,6.60
2018-02-03T23:50:01.748Z,6.03
2018-02-03T23:52:30.107Z,6.40
2018-02-03T23:54:58.460Z,5.63
2018-02-03T23:57:26.868Z,6.20
2018-02-03T23:59:55.219Z,6.27
